Lundstrom Tide — YJTE2 — position and weather

sailwx.info

Track history (hours):
 
Tides and Currents Weather Stations Pressure Air Temp Water Temp Dewpoint Dewpoint Depression Visibility Wind Speed Wind Dir Waves Ship Positions

Lundstrom Tide

Last reported at 2018-Mar-24 05:47 UTC. Time now 2018-Jun-24 09:15 UTC.
Position N 58°60' E 004°45'.
Warning: this ship's position is months out of date.

Length 88 m; draft 6 m.

Type: Other ship. MMSI: 577129000.

Date/timePositionNaut miles runAvg speedWind from/ knotsBaromVisibWave heightAir tempDewpointWater temp
2018-Mar-24 05:47N 58°60' E 004°45'312.3
2018-Mar-24 05:30N 59°01' E 004°52'612.3
2018-Mar-24 05:00N 59°02' E 005°04'612.1
2018-Mar-24 04:30N 59°04' E 005°15'611.9
2018-Mar-24 04:00N 59°07' E 005°25'5 9.7
2018-Mar-24 03:29N 59°04' E 005°34'510.8
2018-Mar-24 03:00N 59°00' E 005°40'0 0.1
2018-Mar-24 02:28N 58°60' E 005°40'0 0.0
2018-Mar-24 01:58N 59°00' E 005°40'0 0.0
2018-Mar-24 01:28N 59°00' E 005°40'0 0.0
2018-Mar-24 00:58N 59°00' E 005°40'0 0.0
2018-Mar-24 00:28N 59°00' E 005°40'0 0.0
2018-Mar-23 23:58N 59°00' E 005°40'0 0.0
2018-Mar-23 23:28N 58°60' E 005°40'0 0.0
2018-Mar-23 22:58N 59°00' E 005°40'0 0.0
2018-Mar-23 22:28N 58°60' E 005°40'0 0.0
2018-Mar-23 21:58N 59°00' E 005°40'0 0.0
2018-Mar-23 21:28N 59°00' E 005°40'0 0.0
2018-Mar-23 20:58N 58°60' E 005°40'0 0.0
2018-Mar-23 20:28N 59°00' E 005°40'0 0.0
2018-Mar-23 19:58N 59°00' E 005°40'0 0.0
2018-Mar-23 19:25N 59°00' E 005°40'0 0.0
2018-Mar-23 19:00N 58°60' E 005°40'0 0.3
2018-Mar-23 18:30N 59°00' E 005°40'1 1.6
2018-Mar-23 18:00N 59°00' E 005°41'0 0.0
2018-Mar-23 17:30N 59°00' E 005°41'0 0.0
2018-Mar-23 17:00N 59°00' E 005°41'0 0.0
2018-Mar-23 16:30N 59°00' E 005°41'0 0.0
2018-Mar-23 16:00N 59°00' E 005°41'0 0.0
2018-Mar-23 15:28N 59°00' E 005°41'0 0.0
2018-Mar-23 14:59N 59°00' E 005°41'0 0.0
2018-Mar-23 14:30N 59°00' E 005°41'0 0.0
2018-Mar-23 14:00N 59°00' E 005°41'0 0.0
2018-Mar-23 13:30N 59°00' E 005°41'0 0.2
2018-Mar-23 13:01N 59°00' E 005°41'0 0.1
2018-Mar-23 12:30N 59°00' E 005°41'0 0.3
2018-Mar-23 12:00N 59°00' E 005°42'0 0.1
2018-Mar-23 11:30N 59°00' E 005°42'0 0.0
2018-Mar-23 11:00N 59°00' E 005°42'0 0.0
2018-Mar-23 10:30N 59°00' E 005°42'0 0.5
2018-Mar-23 10:01N 59°00' E 005°42'0 0.0
2018-Mar-23 09:30N 59°00' E 005°42'0 0.0
2018-Mar-23 09:00N 59°00' E 005°42'0 0.0
2018-Mar-23 08:30N 59°00' E 005°42'0 0.0
2018-Mar-23 08:00N 59°00' E 005°42'0 0.0
2018-Mar-23 07:31N 59°00' E 005°42'0 0.0
2018-Mar-23 07:00N 59°00' E 005°42'0 0.0
2018-Mar-23 06:30N 59°00' E 005°42'2 2.9
2018-Mar-23 05:59N 58°59' E 005°43'0 1.0
2018-Mar-23 05:29N 58°58' E 005°44'0 0.0
2018-Mar-23 04:59N 58°58' E 005°44'0 0.0
2018-Mar-23 04:30N 58°58' E 005°44'0 0.0
2018-Mar-23 04:00N 58°58' E 005°44'0 0.0
2018-Mar-23 03:31N 58°58' E 005°44'0 0.0
2018-Mar-23 03:00N 58°58' E 005°44'0 0.0
2018-Mar-23 02:30N 58°58' E 005°44'0 0.0
2018-Mar-23 02:00N 58°58' E 005°44'0 0.0
2018-Mar-23 01:30N 58°58' E 005°44'0 0.0
2018-Mar-23 01:00N 58°58' E 005°44'0 0.0
2018-Mar-23 00:30N 58°58' E 005°44'0 0.0
2018-Mar-23 00:01N 58°58' E 005°44'0 0.0
2018-Mar-22 23:30N 58°58' E 005°44'0 0.0
2018-Mar-22 23:00N 58°58' E 005°44'0 0.0
2018-Mar-22 22:30N 58°58' E 005°44'0 0.0
2018-Mar-22 22:00N 58°58' E 005°44'0 0.0
2018-Mar-22 21:31N 58°58' E 005°44'0 0.0
2018-Mar-22 21:00N 58°58' E 005°44'0 0.0
2018-Mar-22 20:30N 58°58' E 005°44'0 0.0
2018-Mar-22 20:00N 58°58' E 005°44'0 0.0
2018-Mar-22 19:30N 58°58' E 005°44'0 0.0
2018-Mar-22 19:00N 58°58' E 005°44'0 0.0
2018-Mar-22 18:30N 58°58' E 005°44'0 0.0
2018-Mar-22 17:59N 58°58' E 005°44'0 0.0
2018-Mar-22 17:30N 58°58' E 005°44'0 0.0
2018-Mar-22 17:00N 58°58' E 005°44'0 0.0
2018-Mar-22 16:30N 58°58' E 005°44'0 0.0
2018-Mar-22 16:00N 58°58' E 005°44'0 0.0
2018-Mar-22 15:29N 58°58' E 005°44'0 0.0
2018-Mar-22 15:01N 58°58' E 005°44'0 0.0
2018-Mar-22 14:30N 58°58' E 005°44'0 0.0
2018-Mar-22 14:00N 58°58' E 005°44'0 0.0
2018-Mar-22 13:30N 58°58' E 005°44'0 0.0
2018-Mar-22 13:00N 58°58' E 005°44'2 3.2
2018-Mar-22 12:30N 58°60' E 005°42'0 0.7
2018-Mar-22 12:00N 59°00' E 005°42'0 0.0
2018-Mar-22 11:30N 59°00' E 005°42'0 0.0
2018-Mar-22 11:00N 59°00' E 005°42'0 0.0
2018-Mar-22 10:30N 59°00' E 005°42'0 0.0
2018-Mar-22 10:00N 59°00' E 005°42'0 0.0
2018-Mar-22 09:30N 59°00' E 005°42'0 0.1
2018-Mar-22 09:00N 59°00' E 005°42'0 0.3
2018-Mar-22 08:29N 59°00' E 005°42'1 2.7
2018-Mar-22 08:00N 58°59' E 005°44'0 0.0
2018-Mar-22 07:30N 58°59' E 005°44'0 0.0
2018-Mar-22 07:00N 58°59' E 005°44'0 0.0
2018-Mar-22 06:30N 58°59' E 005°44'0 0.0
2018-Mar-22 06:00N 58°59' E 005°44'0 0.0
2018-Mar-22 05:30N 58°59' E 005°44'0 0.0
2018-Mar-22 05:00N 58°59' E 005°44'0 0.0
2018-Mar-22 04:31N 58°59' E 005°44'0 0.0
2018-Mar-22 03:59N 58°59' E 005°44'0 0.0
2018-Mar-22 03:30N 58°59' E 005°44'0 0.0
2018-Mar-22 03:00N 58°59' E 005°44'0 0.0
2018-Mar-22 02:29N 58°59' E 005°44'0 0.0
2018-Mar-22 01:59N 58°59' E 005°44'0 0.0
2018-Mar-22 01:30N 58°59' E 005°44'0 0.0
2018-Mar-22 01:00N 58°59' E 005°44'0 0.0
2018-Mar-22 00:30N 58°59' E 005°44'0 0.0
2018-Mar-22 00:00N 58°59' E 005°44'0 0.0
2018-Mar-21 23:30N 58°59' E 005°44'0 0.0
2018-Mar-21 23:01N 58°59' E 005°44'0 0.0
2018-Mar-21 22:30N 58°59' E 005°44'0 0.0
2018-Mar-21 22:00N 58°59' E 005°44'0 0.0
2018-Mar-21 21:30N 58°59' E 005°44'0 0.0
2018-Mar-21 21:00N 58°59' E 005°44'0 0.0
2018-Mar-21 20:30N 58°59' E 005°44'0 0.0
2018-Mar-21 20:00N 58°59' E 005°44'0 0.0
2018-Mar-21 19:30N 58°59' E 005°44'0 0.0
2018-Mar-21 19:00N 58°59' E 005°44'0 0.0
2018-Mar-21 18:30N 58°59' E 005°44'0 0.0
2018-Mar-21 17:59N 58°59' E 005°44'0 0.0
2018-Mar-21 17:30N 58°59' E 005°44'0 0.0
2018-Mar-21 17:00N 58°59' E 005°44'0 0.0
2018-Mar-21 16:30N 58°59' E 005°44'0 0.0
2018-Mar-21 16:00N 58°59' E 005°44'0 0.0
2018-Mar-21 15:29N 58°59' E 005°44'0 0.0
2018-Mar-21 15:00N 58°59' E 005°44'0 0.0
2018-Mar-21 14:30N 58°59' E 005°44'0 0.0
2018-Mar-21 14:00N 58°59' E 005°44'0 0.0
2018-Mar-21 13:30N 58°59' E 005°44'0 0.0
2018-Mar-21 13:00N 58°59' E 005°44'0 0.0
2018-Mar-21 12:30N 58°59' E 005°44'0 0.0
2018-Mar-21 11:59N 58°59' E 005°44'0 0.0
2018-Mar-21 11:30N 58°59' E 005°44'0 0.0
2018-Mar-21 11:00N 58°59' E 005°44'0 0.0
2018-Mar-21 10:30N 58°59' E 005°44'0 0.0
2018-Mar-21 10:00N 58°59' E 005°44'0 0.0
2018-Mar-21 09:30N 58°59' E 005°44'0 0.0
2018-Mar-20 11:18N 58°59' E 005°44'0 0.0
2018-Mar-20 11:00N 58°59' E 005°44'0 0.0
2018-Mar-20 10:30N 58°59' E 005°44'0 0.0
2018-Mar-20 10:00N 58°59' E 005°44'0 0.0
2018-Mar-20 09:30N 58°59' E 005°44'0 0.0
2018-Mar-20 09:00N 58°59' E 005°44'0 0.0
2018-Mar-20 08:30N 58°59' E 005°44'0 0.1
2018-Mar-20 08:00N 58°59' E 005°44'0 0.0
2018-Mar-20 07:30N 58°59' E 005°44'0 0.0
2018-Mar-20 07:00N 58°59' E 005°44'0 0.0
2018-Mar-20 06:30N 58°59' E 005°44'0 0.0
2018-Mar-20 06:00N 58°59' E 005°44'0 0.0
2018-Mar-20 05:30N 58°59' E 005°44'0 0.0
2018-Mar-20 05:00N 58°59' E 005°44'0 0.0
2018-Mar-20 04:30N 58°59' E 005°44'0 0.0
2018-Mar-20 04:00N 58°59' E 005°44'0 0.0
2018-Mar-20 03:30N 58°59' E 005°44'0 0.0
2018-Mar-20 03:00N 58°59' E 005°44'0 0.0
2018-Mar-20 02:30N 58°59' E 005°44'0 0.0
2018-Mar-20 02:00N 58°59' E 005°44'0 0.0
2018-Mar-20 01:30N 58°59' E 005°44'0 0.0
2018-Mar-20 01:00N 58°59' E 005°44'0 0.0
2018-Mar-20 00:30N 58°59' E 005°44'0 0.0
2018-Mar-19 23:59N 58°59' E 005°44'0 0.0
2018-Mar-19 23:30N 58°59' E 005°44'0 0.0
2018-Mar-19 23:00N 58°59' E 005°44'0 0.0
2018-Mar-19 22:30N 58°59' E 005°44'0 0.0
2018-Mar-19 22:00N 58°59' E 005°44'0 0.0
2018-Mar-19 21:30N 58°59' E 005°44'0 0.0
2018-Mar-19 21:00N 58°59' E 005°44'0 0.0
2018-Mar-19 20:30N 58°59' E 005°44'0 0.0
2018-Mar-19 20:00N 58°59' E 005°44'0 0.0
2018-Mar-19 19:30N 58°59' E 005°44'0 0.0
2018-Mar-19 19:00N 58°59' E 005°44'0 0.0
2018-Mar-19 18:30N 58°59' E 005°44'0 0.0
2018-Mar-19 18:00N 58°59' E 005°44'0 0.0
2018-Mar-19 17:30N 58°59' E 005°44'0 0.0
2018-Mar-19 16:59N 58°59' E 005°44'0 0.0
2018-Mar-19 16:30N 58°59' E 005°44'0 0.0
2018-Mar-19 16:00N 58°59' E 005°44'0 0.0
2018-Mar-19 15:30N 58°59' E 005°44'0 0.0
2018-Mar-19 15:00N 58°59' E 005°44'0 0.0
2018-Mar-19 14:30N 58°59' E 005°44'0 0.0
2018-Mar-19 14:00N 58°59' E 005°44'0 0.0
2018-Mar-19 13:27N 58°59' E 005°44'0 0.0
2018-Mar-19 13:00N 58°59' E 005°44'0 0.0
2018-Mar-19 12:30N 58°59' E 005°44'0 0.0
2018-Mar-19 12:00N 58°59' E 005°44'0 0.0
2018-Mar-19 11:30N 58°59' E 005°44'0 0.0
2018-Mar-19 11:00N 58°59' E 005°44'1 2.7
2018-Mar-19 10:30N 58°60' E 005°42'5 9.7
2018-Mar-19 10:00N 59°02' E 005°33'714.2
2018-Mar-19 09:30N 58°55' E 005°33'612.1
2018-Mar-19 09:00N 58°50' E 005°27'510.8
2018-Mar-19 08:30N 58°46' E 005°19'815.3
2018-Mar-19 08:00N 58°39' E 005°20'815.4
2018-Mar-19 07:30N 58°31' E 005°23'815.1
2018-Mar-19 07:00N 58°23' E 005°25'815.2
2018-Mar-19 06:30N 58°16' E 005°27'400 7.9
2018-Mar-17 03:45N 51°48' E 002°36'413.6
2018-Mar-17 03:27N 51°44' E 002°33'613.8
2018-Mar-17 03:00N 51°39' E 002°27'714.2
2018-Mar-17 02:30N 51°33' E 002°21'714.7
2018-Mar-17 02:00N 51°28' E 002°14'714.4
2018-Mar-17 01:31N 51°21' E 002°09'714.5
2018-Mar-17 01:01N 51°14' E 002°05'714.6
2018-Mar-17 00:31N 51°10' E 001°55'816.4
2018-Mar-17 00:00N 51°05' E 001°44'917.1
2018-Mar-16 23:29N 50°59' E 001°34'917.1
2018-Mar-16 22:59N 50°52' E 001°26'816.5
2018-Mar-16 22:30N 50°45' E 001°22'1415.1
2018-Mar-16 21:32N 50°34' E 001°06'215.3
2018-Mar-16 21:25N 50°33' E 001°04'615.3
2018-Mar-16 21:00N 50°29' E 000°56'815.6
2018-Mar-16 20:30N 50°27' E 000°44'816.0
2018-Mar-16 20:00N 50°24' E 000°32'816.1
2018-Mar-16 19:30N 50°22' E 000°20'816.0
2018-Mar-16 19:01N 50°20' E 000°08'915.5
2018-Mar-16 18:27N 50°18' W 000°05'715.0
2018-Mar-16 17:57N 50°16' W 000°16'914.7
2018-Mar-16 17:22N 50°14' W 000°29'1214.0
2018-Mar-16 16:29N 50°12' W 000°48'613.2
2018-Mar-16 16:00N 50°11' W 000°58'812.5
2018-Mar-16 15:23N 50°09' W 001°10'512.0
2018-Mar-16 15:00N 50°08' W 001°17'611.3
2018-Mar-16 14:30N 50°06' W 001°25'611.1
2018-Mar-16 14:00N 50°05' W 001°33'1010.8
2018-Mar-16 13:04N 50°01' W 001°49'110.8
2018-Mar-16 13:00N 50°01' W 001°49'3412.3
2018-Mar-16 10:13N 49°53' W 002°41'514.0
2018-Mar-16 09:54N 49°52' W 002°48'514.2
2018-Mar-16 09:31N 49°50' W 002°56'714.1
2018-Mar-16 09:00N 49°46' W 003°06'  
Track history (hours):
 
Tides and Currents Weather Stations Pressure Air Temp Water Temp Dewpoint Dewpoint Depression Visibility Wind Speed Wind Dir Waves Ship Positions

Lundstrom Tide

Last reported at 2018-Mar-24 05:47 UTC. Time now 2018-Jun-24 09:15 UTC.
Position N 58°60' E 004°45'.
Warning: this ship's position is months out of date.

Length 88 m; draft 6 m.

Type: Other ship. MMSI: 577129000.

Date/timePositionNaut miles runAvg speedWind from/ knotsBaromVisibWave heightAir tempDewpointWater temp
2018-Mar-24 05:47N 58°60' E 004°45'312.3
2018-Mar-24 05:30N 59°01' E 004°52'612.3
2018-Mar-24 05:00N 59°02' E 005°04'612.1
2018-Mar-24 04:30N 59°04' E 005°15'611.9
2018-Mar-24 04:00N 59°07' E 005°25'5 9.7
2018-Mar-24 03:29N 59°04' E 005°34'510.8
2018-Mar-24 03:00N 59°00' E 005°40'0 0.1
2018-Mar-24 02:28N 58°60' E 005°40'0 0.0
2018-Mar-24 01:58N 59°00' E 005°40'0 0.0
2018-Mar-24 01:28N 59°00' E 005°40'0 0.0
2018-Mar-24 00:58N 59°00' E 005°40'0 0.0
2018-Mar-24 00:28N 59°00' E 005°40'0 0.0
2018-Mar-23 23:58N 59°00' E 005°40'0 0.0
2018-Mar-23 23:28N 58°60' E 005°40'0 0.0
2018-Mar-23 22:58N 59°00' E 005°40'0 0.0
2018-Mar-23 22:28N 58°60' E 005°40'0 0.0
2018-Mar-23 21:58N 59°00' E 005°40'0 0.0
2018-Mar-23 21:28N 59°00' E 005°40'0 0.0
2018-Mar-23 20:58N 58°60' E 005°40'0 0.0
2018-Mar-23 20:28N 59°00' E 005°40'0 0.0
2018-Mar-23 19:58N 59°00' E 005°40'0 0.0
2018-Mar-23 19:25N 59°00' E 005°40'0 0.0
2018-Mar-23 19:00N 58°60' E 005°40'0 0.3
2018-Mar-23 18:30N 59°00' E 005°40'1 1.6
2018-Mar-23 18:00N 59°00' E 005°41'0 0.0
2018-Mar-23 17:30N 59°00' E 005°41'0 0.0
2018-Mar-23 17:00N 59°00' E 005°41'0 0.0
2018-Mar-23 16:30N 59°00' E 005°41'0 0.0
2018-Mar-23 16:00N 59°00' E 005°41'0 0.0
2018-Mar-23 15:28N 59°00' E 005°41'0 0.0
2018-Mar-23 14:59N 59°00' E 005°41'0 0.0
2018-Mar-23 14:30N 59°00' E 005°41'0 0.0
2018-Mar-23 14:00N 59°00' E 005°41'0 0.0
2018-Mar-23 13:30N 59°00' E 005°41'0 0.2
2018-Mar-23 13:01N 59°00' E 005°41'0 0.1
2018-Mar-23 12:30N 59°00' E 005°41'0 0.3
2018-Mar-23 12:00N 59°00' E 005°42'0 0.1
2018-Mar-23 11:30N 59°00' E 005°42'0 0.0
2018-Mar-23 11:00N 59°00' E 005°42'0 0.0
2018-Mar-23 10:30N 59°00' E 005°42'0 0.5
2018-Mar-23 10:01N 59°00' E 005°42'0 0.0
2018-Mar-23 09:30N 59°00' E 005°42'0 0.0
2018-Mar-23 09:00N 59°00' E 005°42'0 0.0
2018-Mar-23 08:30N 59°00' E 005°42'0 0.0
2018-Mar-23 08:00N 59°00' E 005°42'0 0.0
2018-Mar-23 07:31N 59°00' E 005°42'0 0.0
2018-Mar-23 07:00N 59°00' E 005°42'0 0.0
2018-Mar-23 06:30N 59°00' E 005°42'2 2.9
2018-Mar-23 05:59N 58°59' E 005°43'0 1.0
2018-Mar-23 05:29N 58°58' E 005°44'0 0.0
2018-Mar-23 04:59N 58°58' E 005°44'0 0.0
2018-Mar-23 04:30N 58°58' E 005°44'0 0.0
2018-Mar-23 04:00N 58°58' E 005°44'0 0.0
2018-Mar-23 03:31N 58°58' E 005°44'0 0.0
2018-Mar-23 03:00N 58°58' E 005°44'0 0.0
2018-Mar-23 02:30N 58°58' E 005°44'0 0.0
2018-Mar-23 02:00N 58°58' E 005°44'0 0.0
2018-Mar-23 01:30N 58°58' E 005°44'0 0.0
2018-Mar-23 01:00N 58°58' E 005°44'0 0.0
2018-Mar-23 00:30N 58°58' E 005°44'0 0.0
2018-Mar-23 00:01N 58°58' E 005°44'0 0.0
2018-Mar-22 23:30N 58°58' E 005°44'0 0.0
2018-Mar-22 23:00N 58°58' E 005°44'0 0.0
2018-Mar-22 22:30N 58°58' E 005°44'0 0.0
2018-Mar-22 22:00N 58°58' E 005°44'0 0.0
2018-Mar-22 21:31N 58°58' E 005°44'0 0.0
2018-Mar-22 21:00N 58°58' E 005°44'0 0.0
2018-Mar-22 20:30N 58°58' E 005°44'0 0.0
2018-Mar-22 20:00N 58°58' E 005°44'0 0.0
2018-Mar-22 19:30N 58°58' E 005°44'0 0.0
2018-Mar-22 19:00N 58°58' E 005°44'0 0.0
2018-Mar-22 18:30N 58°58' E 005°44'0 0.0
2018-Mar-22 17:59N 58°58' E 005°44'0 0.0
2018-Mar-22 17:30N 58°58' E 005°44'0 0.0
2018-Mar-22 17:00N 58°58' E 005°44'0 0.0
2018-Mar-22 16:30N 58°58' E 005°44'0 0.0
2018-Mar-22 16:00N 58°58' E 005°44'0 0.0
2018-Mar-22 15:29N 58°58' E 005°44'0 0.0
2018-Mar-22 15:01N 58°58' E 005°44'0 0.0
2018-Mar-22 14:30N 58°58' E 005°44'0 0.0
2018-Mar-22 14:00N 58°58' E 005°44'0 0.0
2018-Mar-22 13:30N 58°58' E 005°44'0 0.0
2018-Mar-22 13:00N 58°58' E 005°44'2 3.2
2018-Mar-22 12:30N 58°60' E 005°42'0 0.7
2018-Mar-22 12:00N 59°00' E 005°42'0 0.0
2018-Mar-22 11:30N 59°00' E 005°42'0 0.0
2018-Mar-22 11:00N 59°00' E 005°42'0 0.0
2018-Mar-22 10:30N 59°00' E 005°42'0 0.0
2018-Mar-22 10:00N 59°00' E 005°42'0 0.0
2018-Mar-22 09:30N 59°00' E 005°42'0 0.1
2018-Mar-22 09:00N 59°00' E 005°42'0 0.3
2018-Mar-22 08:29N 59°00' E 005°42'1 2.7
2018-Mar-22 08:00N 58°59' E 005°44'0 0.0
2018-Mar-22 07:30N 58°59' E 005°44'0 0.0
2018-Mar-22 07:00N 58°59' E 005°44'0 0.0
2018-Mar-22 06:30N 58°59' E 005°44'0 0.0
2018-Mar-22 06:00N 58°59' E 005°44'0 0.0
2018-Mar-22 05:30N 58°59' E 005°44'0 0.0
2018-Mar-22 05:00N 58°59' E 005°44'0 0.0
2018-Mar-22 04:31N 58°59' E 005°44'0 0.0
2018-Mar-22 03:59N 58°59' E 005°44'0 0.0
2018-Mar-22 03:30N 58°59' E 005°44'0 0.0
2018-Mar-22 03:00N 58°59' E 005°44'0 0.0
2018-Mar-22 02:29N 58°59' E 005°44'0 0.0
2018-Mar-22 01:59N 58°59' E 005°44'0 0.0
2018-Mar-22 01:30N 58°59' E 005°44'0 0.0
2018-Mar-22 01:00N 58°59' E 005°44'0 0.0
2018-Mar-22 00:30N 58°59' E 005°44'0 0.0
2018-Mar-22 00:00N 58°59' E 005°44'0 0.0
2018-Mar-21 23:30N 58°59' E 005°44'0 0.0
2018-Mar-21 23:01N 58°59' E 005°44'0 0.0
2018-Mar-21 22:30N 58°59' E 005°44'0 0.0
2018-Mar-21 22:00N 58°59' E 005°44'0 0.0
2018-Mar-21 21:30N 58°59' E 005°44'0 0.0
2018-Mar-21 21:00N 58°59' E 005°44'0 0.0
2018-Mar-21 20:30N 58°59' E 005°44'0 0.0
2018-Mar-21 20:00N 58°59' E 005°44'0 0.0
2018-Mar-21 19:30N 58°59' E 005°44'0 0.0
2018-Mar-21 19:00N 58°59' E 005°44'0 0.0
2018-Mar-21 18:30N 58°59' E 005°44'0 0.0
2018-Mar-21 17:59N 58°59' E 005°44'0 0.0
2018-Mar-21 17:30N 58°59' E 005°44'0 0.0
2018-Mar-21 17:00N 58°59' E 005°44'0 0.0
2018-Mar-21 16:30N 58°59' E 005°44'0 0.0
2018-Mar-21 16:00N 58°59' E 005°44'0 0.0
2018-Mar-21 15:29N 58°59' E 005°44'0 0.0
2018-Mar-21 15:00N 58°59' E 005°44'0 0.0
2018-Mar-21 14:30N 58°59' E 005°44'0 0.0
2018-Mar-21 14:00N 58°59' E 005°44'0 0.0
2018-Mar-21 13:30N 58°59' E 005°44'0 0.0
2018-Mar-21 13:00N 58°59' E 005°44'0 0.0
2018-Mar-21 12:30N 58°59' E 005°44'0 0.0
2018-Mar-21 11:59N 58°59' E 005°44'0 0.0
2018-Mar-21 11:30N 58°59' E 005°44'0 0.0
2018-Mar-21 11:00N 58°59' E 005°44'0 0.0
2018-Mar-21 10:30N 58°59' E 005°44'0 0.0
2018-Mar-21 10:00N 58°59' E 005°44'0 0.0
2018-Mar-21 09:30N 58°59' E 005°44'0 0.0
2018-Mar-20 11:18N 58°59' E 005°44'0 0.0
2018-Mar-20 11:00N 58°59' E 005°44'0 0.0
2018-Mar-20 10:30N 58°59' E 005°44'0 0.0
2018-Mar-20 10:00N 58°59' E 005°44'0 0.0
2018-Mar-20 09:30N 58°59' E 005°44'0 0.0
2018-Mar-20 09:00N 58°59' E 005°44'0 0.0
2018-Mar-20 08:30N 58°59' E 005°44'0 0.1
2018-Mar-20 08:00N 58°59' E 005°44'0 0.0
2018-Mar-20 07:30N 58°59' E 005°44'0 0.0
2018-Mar-20 07:00N 58°59' E 005°44'0 0.0
2018-Mar-20 06:30N 58°59' E 005°44'0 0.0
2018-Mar-20 06:00N 58°59' E 005°44'0 0.0
2018-Mar-20 05:30N 58°59' E 005°44'0 0.0
2018-Mar-20 05:00N 58°59' E 005°44'0 0.0
2018-Mar-20 04:30N 58°59' E 005°44'0 0.0
2018-Mar-20 04:00N 58°59' E 005°44'0 0.0
2018-Mar-20 03:30N 58°59' E 005°44'0 0.0
2018-Mar-20 03:00N 58°59' E 005°44'0 0.0
2018-Mar-20 02:30N 58°59' E 005°44'0 0.0
2018-Mar-20 02:00N 58°59' E 005°44'0 0.0
2018-Mar-20 01:30N 58°59' E 005°44'0 0.0
2018-Mar-20 01:00N 58°59' E 005°44'0 0.0
2018-Mar-20 00:30N 58°59' E 005°44'0 0.0
2018-Mar-19 23:59N 58°59' E 005°44'0 0.0
2018-Mar-19 23:30N 58°59' E 005°44'0 0.0
2018-Mar-19 23:00N 58°59' E 005°44'0 0.0
2018-Mar-19 22:30N 58°59' E 005°44'0 0.0
2018-Mar-19 22:00N 58°59' E 005°44'0 0.0
2018-Mar-19 21:30N 58°59' E 005°44'0 0.0
2018-Mar-19 21:00N 58°59' E 005°44'0 0.0
2018-Mar-19 20:30N 58°59' E 005°44'0 0.0
2018-Mar-19 20:00N 58°59' E 005°44'0 0.0
2018-Mar-19 19:30N 58°59' E 005°44'0 0.0
2018-Mar-19 19:00N 58°59' E 005°44'0 0.0
2018-Mar-19 18:30N 58°59' E 005°44'0 0.0
2018-Mar-19 18:00N 58°59' E 005°44'0 0.0
2018-Mar-19 17:30N 58°59' E 005°44'0 0.0
2018-Mar-19 16:59N 58°59' E 005°44'0 0.0
2018-Mar-19 16:30N 58°59' E 005°44'0 0.0
2018-Mar-19 16:00N 58°59' E 005°44'0 0.0
2018-Mar-19 15:30N 58°59' E 005°44'0 0.0
2018-Mar-19 15:00N 58°59' E 005°44'0 0.0
2018-Mar-19 14:30N 58°59' E 005°44'0 0.0
2018-Mar-19 14:00N 58°59' E 005°44'0 0.0
2018-Mar-19 13:27N 58°59' E 005°44'0 0.0
2018-Mar-19 13:00N 58°59' E 005°44'0 0.0
2018-Mar-19 12:30N 58°59' E 005°44'0 0.0
2018-Mar-19 12:00N 58°59' E 005°44'0 0.0
2018-Mar-19 11:30N 58°59' E 005°44'0 0.0
2018-Mar-19 11:00N 58°59' E 005°44'1 2.7
2018-Mar-19 10:30N 58°60' E 005°42'5 9.7
2018-Mar-19 10:00N 59°02' E 005°33'714.2
2018-Mar-19 09:30N 58°55' E 005°33'612.1
2018-Mar-19 09:00N 58°50' E 005°27'510.8
2018-Mar-19 08:30N 58°46' E 005°19'815.3
2018-Mar-19 08:00N 58°39' E 005°20'815.4
2018-Mar-19 07:30N 58°31' E 005°23'815.1
2018-Mar-19 07:00N 58°23' E 005°25'815.2
2018-Mar-19 06:30N 58°16' E 005°27'400 7.9
2018-Mar-17 03:45N 51°48' E 002°36'413.6
2018-Mar-17 03:27N 51°44' E 002°33'613.8
2018-Mar-17 03:00N 51°39' E 002°27'714.2
2018-Mar-17 02:30N 51°33' E 002°21'714.7
2018-Mar-17 02:00N 51°28' E 002°14'714.4
2018-Mar-17 01:31N 51°21' E 002°09'714.5
2018-Mar-17 01:01N 51°14' E 002°05'714.6
2018-Mar-17 00:31N 51°10' E 001°55'816.4
2018-Mar-17 00:00N 51°05' E 001°44'917.1
2018-Mar-16 23:29N 50°59' E 001°34'917.1
2018-Mar-16 22:59N 50°52' E 001°26'816.5
2018-Mar-16 22:30N 50°45' E 001°22'1415.1
2018-Mar-16 21:32N 50°34' E 001°06'215.3
2018-Mar-16 21:25N 50°33' E 001°04'615.3
2018-Mar-16 21:00N 50°29' E 000°56'815.6
2018-Mar-16 20:30N 50°27' E 000°44'816.0
2018-Mar-16 20:00N 50°24' E 000°32'816.1
2018-Mar-16 19:30N 50°22' E 000°20'816.0
2018-Mar-16 19:01N 50°20' E 000°08'915.5
2018-Mar-16 18:27N 50°18' W 000°05'715.0
2018-Mar-16 17:57N 50°16' W 000°16'914.7
2018-Mar-16 17:22N 50°14' W 000°29'1214.0
2018-Mar-16 16:29N 50°12' W 000°48'613.2
2018-Mar-16 16:00N 50°11' W 000°58'812.5
2018-Mar-16 15:23N 50°09' W 001°10'512.0
2018-Mar-16 15:00N 50°08' W 001°17'611.3
2018-Mar-16 14:30N 50°06' W 001°25'611.1
2018-Mar-16 14:00N 50°05' W 001°33'1010.8
2018-Mar-16 13:04N 50°01' W 001°49'110.8
2018-Mar-16 13:00N 50°01' W 001°49'3412.3
2018-Mar-16 10:13N 49°53' W 002°41'514.0
2018-Mar-16 09:54N 49°52' W 002°48'514.2
2018-Mar-16 09:31N 49°50' W 002°56'714.1
2018-Mar-16 09:00N 49°46' W 003°06'  

Dump ship's entire track history